METAR UND TAF INFORMATION

METAR FOR LOWG
ADDS - METARS form results

(0137 UTC 26 June 2022)
Data provider http://aviationweather.gov/metar/data/
 
METAR text: LOWG 260120Z AUTO VRB01KT 9999 NCD 16/14 Q1015
Conditions at: LOWG (GRAZ (MIL/CIV) , AT) observed 0120 UTC 26 June 2022
Temperature: 16.0°C (61°F)
Dewpoint: 14.0°C (57°F) [RH = 88%]
Pressure (altimeter): 29.97 inches Hg (1015.0 mb)
Winds: variable direction winds at 1 MPH (1 knots; 0.5 m/s)
Visibility: 6 or more miles (10+ km)
Ceiling: at least 12,000 feet AGL
Clouds: sky clear below 12,000 feet AGL
Weather: no significant weather observed at this time

METAR text: LOWG 260050Z AUTO VRB01KT 9999 NCD 17/15 Q1015
Conditions at: LOWG (GRAZ (MIL/CIV) , AT) observed 0050 UTC 26 June 2022
Temperature: 17.0°C (63°F)
Dewpoint: 15.0°C (59°F) [RH = 88%]
Pressure (altimeter): 29.97 inches Hg (1015.0 mb)
Winds: variable direction winds at 1 MPH (1 knots; 0.5 m/s)
Visibility: 6 or more miles (10+ km)
Ceiling: at least 12,000 feet AGL
Clouds: sky clear below 12,000 feet AGL
Weather: no significant weather observed at this time

Forecast for: LOWG (GRAZ (MIL/CIV) , AT)
Text: TAF LOWG 252315Z 2600/2624 VRB04KT 9999 FEW070 TX29/2615Z TN15/2603Z
Forecast period: 0000 UTC 26 June 2022 to 0000 UTC 27 June 2022
Forecast type: FROM: standard forecast or significant change
Winds: variable direction winds at 5 MPH (4 knots; 2.1 m/s)
Visibility: 6 or more miles (10+ km)
Ceiling: at least 12,000 feet AGL
Clouds: few clouds at 7000 feet AGL
Weather: no significant weather forecast for this period
Text: TEMPO 2610/2618 16008KT
Forecast period: 1000 to 1800 UTC 26 June 2022
Forecast type: TEMPORARY: The following changes expected for less than half the time period
Winds: from the SSE (160 degrees) at 9 MPH (8 knots; 4.1 m/s)
Visibility: missing
Ceiling: unknown
Clouds: missing
Weather: no significant weather forecast for this period

 FLUGHAFENKARTE

 RUNWAY INFORMATION
Runway 17C Runway length 9842 ft Runway width 148 ft
Runway elevation 1115 ft Runway displaced threshold 853 ft Runway heading 169
Runway 35C Runway length 9842 ft Runway width 148 ft
Runway elevation 1089 ft Runway displaced threshold 0 ft Runway heading 349
Runway 17R Runway length 2493 ft Runway width 82 ft
Runway elevation 1112 ft Runway displaced threshold 492 ft Runway heading 169
Runway 35L Runway length 2493 ft Runway width 82 ft
Runway elevation 1102 ft Runway displaced threshold 492 ft Runway heading 349
Runway 17L Runway length 2100 ft Runway width 98 ft
Runway elevation 1112 ft Runway displaced threshold 0 ft Runway heading 169
Runway 35R Runway length 2100 ft Runway width 98 ft
Runway elevation 1102 ft Runway displaced threshold 0 ft Runway heading 349

 AIRPORT FREQUENCIES
Type APP Name APP Frequency 119.3 MHZ
Type ATIS Name ATIS Frequency 126.125 MHZ
Type TWR Name TWR Frequency 118.2 MHZ

 AIRPORT NEAR NAVIGATION AIDS